createdAt,value
2018-03-08T00:02:25.231Z,7.00
2018-03-08T00:04:53.602Z,7.45
2018-03-08T00:07:22.053Z,7.85
2018-03-08T00:09:50.441Z,7.90
2018-03-08T00:12:18.835Z,6.45
2018-03-08T00:14:47.295Z,5.70
2018-03-08T00:17:15.810Z,6.03
2018-03-08T00:19:44.477Z,5.10
2018-03-08T00:22:12.902Z,5.82
2018-03-08T00:24:41.317Z,5.00
2018-03-08T00:27:10.420Z,5.93
2018-03-08T00:29:39.893Z,5.05
2018-03-08T00:32:08.458Z,4.28
2018-03-08T00:34:36.855Z,4.10
2018-03-08T00:37:05.301Z,5.20
2018-03-08T00:39:33.794Z,5.10
2018-03-08T00:42:02.229Z,5.35
2018-03-08T00:44:30.655Z,6.10
2018-03-08T00:46:59.057Z,6.30
2018-03-08T00:49:27.501Z,5.28
2018-03-08T00:51:55.902Z,7.20
2018-03-08T00:54:24.283Z,7.20
2018-03-08T00:56:52.675Z,7.00
2018-03-08T00:59:21.063Z,7.22
2018-03-08T01:01:49.457Z,10.40
2018-03-08T01:04:17.882Z,10.93
2018-03-08T01:06:46.460Z,10.85
2018-03-08T01:09:14.934Z,10.07
2018-03-08T01:11:43.344Z,11.10
2018-03-08T01:14:11.803Z,11.68
2018-03-08T01:16:40.326Z,13.23
2018-03-08T01:19:08.889Z,15.05
2018-03-08T01:21:37.387Z,16.37
2018-03-08T01:24:05.799Z,16.10
2018-03-08T01:26:34.196Z,15.93
2018-03-08T01:29:02.661Z,14.98
2018-03-08T01:31:31.188Z,14.30
2018-03-08T01:33:59.612Z,15.20
2018-03-08T01:36:28.921Z,15.05
2018-03-08T01:38:57.320Z,16.33
2018-03-08T01:41:25.740Z,16.00
2018-03-08T01:43:54.206Z,16.52
2018-03-08T01:46:22.635Z,17.65
2018-03-08T01:48:51.174Z,16.90
2018-03-08T01:51:19.572Z,18.40
2018-03-08T01:53:47.959Z,16.35
2018-03-08T01:56:16.490Z,15.55
2018-03-08T01:58:44.928Z,12.60
2018-03-08T02:01:13.333Z,9.45
2018-03-08T02:03:41.738Z,9.15
2018-03-08T02:06:10.112Z,9.80
2018-03-08T02:08:38.582Z,9.65
2018-03-08T02:11:06.982Z,10.93
2018-03-08T02:13:35.404Z,12.57
2018-03-08T02:16:03.873Z,12.30
2018-03-08T02:18:32.319Z,15.50
2018-03-08T02:21:00.725Z,15.80
2018-03-08T02:23:29.142Z,17.23
2018-03-08T02:25:57.543Z,20.05
2018-03-08T02:28:26.971Z,20.35
2018-03-08T02:30:55.454Z,25.15
2018-03-08T02:33:23.860Z,21.65
2018-03-08T02:35:52.277Z,22.15
2018-03-08T02:38:20.664Z,23.60
2018-03-08T02:40:49.167Z,23.98
2018-03-08T02:43:17.619Z,24.65
2018-03-08T02:45:46.018Z,26.98
2018-03-08T02:48:14.429Z,26.30
2018-03-08T02:50:42.817Z,30.15
2018-03-08T02:53:11.219Z,26.05
2018-03-08T02:55:39.968Z,26.62
2018-03-08T02:58:08.358Z,28.42
2018-03-08T03:00:36.764Z,29.58
2018-03-08T03:03:05.160Z,28.85
2018-03-08T03:05:33.630Z,31.23
2018-03-08T03:08:02.487Z,31.98
2018-03-08T03:10:30.892Z,33.25
2018-03-08T03:12:59.282Z,31.95
2018-03-08T03:15:27.693Z,32.38
2018-03-08T03:17:56.084Z,29.67
2018-03-08T03:20:24.505Z,30.08
2018-03-08T03:22:52.901Z,29.30
2018-03-08T03:25:21.347Z,28.92
2018-03-08T03:27:49.736Z,31.92
2018-03-08T03:30:18.222Z,30.50
2018-03-08T03:32:46.620Z,31.10
2018-03-08T03:35:15.093Z,29.77
2018-03-08T03:37:43.574Z,29.02
2018-03-08T03:40:11.946Z,26.70
2018-03-08T03:42:40.350Z,29.95
2018-03-08T03:45:08.767Z,28.15
2018-03-08T03:47:37.164Z,27.23
2018-03-08T03:50:05.710Z,27.98
2018-03-08T03:52:34.075Z,27.73
2018-03-08T03:55:02.473Z,25.80
2018-03-08T03:57:30.895Z,29.12
2018-03-08T03:59:59.290Z,29.25
2018-03-08T04:02:27.711Z,31.33
2018-03-08T04:04:56.180Z,30.20
2018-03-08T04:07:24.635Z,29.15
2018-03-08T04:09:53.014Z,26.70
2018-03-08T04:12:21.488Z,26.15
2018-03-08T04:14:49.884Z,27.80
2018-03-08T04:17:18.343Z,26.40
2018-03-08T04:19:46.796Z,26.65
2018-03-08T04:22:15.187Z,26.12
2018-03-08T04:24:43.584Z,25.62
2018-03-08T04:27:11.973Z,23.62
2018-03-08T04:29:40.375Z,23.52
2018-03-08T04:32:08.829Z,26.62
2018-03-08T04:34:37.569Z,25.15
2018-03-08T04:37:05.978Z,23.15
2018-03-08T04:39:34.435Z,26.98
2018-03-08T04:42:02.847Z,26.05
2018-03-08T04:44:31.407Z,24.30
2018-03-08T04:46:59.855Z,22.15
2018-03-08T04:49:28.254Z,22.08
2018-03-08T04:51:56.665Z,22.60
2018-03-08T04:54:25.088Z,23.50
2018-03-08T04:56:53.626Z,21.42
2018-03-08T04:59:22.015Z,20.77
2018-03-08T05:01:50.428Z,19.83
2018-03-08T05:04:18.820Z,21.05
2018-03-08T05:06:47.223Z,20.42
2018-03-08T05:09:15.696Z,16.42
2018-03-08T05:11:44.082Z,18.65
2018-03-08T05:14:12.483Z,18.92
2018-03-08T05:16:40.879Z,17.65
2018-03-08T05:19:09.291Z,16.42
2018-03-08T05:21:37.752Z,17.10
2018-03-08T05:24:06.156Z,14.30
2018-03-08T05:26:34.565Z,16.20
2018-03-08T05:29:02.953Z,17.35
2018-03-08T05:31:31.356Z,14.55
2018-03-08T05:33:59.807Z,14.50
2018-03-08T05:36:28.204Z,15.15
2018-03-08T05:38:56.603Z,15.00
2018-03-08T05:41:25.015Z,15.52
2018-03-08T05:43:53.419Z,14.63
2018-03-08T05:46:21.881Z,13.00
2018-03-08T05:48:50.304Z,12.15
2018-03-08T05:51:18.724Z,13.52
2018-03-08T05:53:47.204Z,13.55
2018-03-08T05:56:15.667Z,13.68
2018-03-08T05:58:44.258Z,13.80
2018-03-08T06:01:13.861Z,13.62
2018-03-08T06:03:42.251Z,13.77
2018-03-08T06:06:10.658Z,14.55
2018-03-08T06:08:39.060Z,11.68
2018-03-08T06:11:07.527Z,12.60
2018-03-08T06:13:35.933Z,10.50
2018-03-08T06:16:04.335Z,10.00
2018-03-08T06:18:32.734Z,10.07
2018-03-08T06:21:01.136Z,9.98
2018-03-08T06:23:29.737Z,8.48
2018-03-08T06:25:58.151Z,9.10
2018-03-08T06:28:26.572Z,8.88
2018-03-08T06:30:54.995Z,10.05
2018-03-08T06:33:23.420Z,8.50
2018-03-08T06:35:51.976Z,6.95
2018-03-08T06:38:21.646Z,8.52
2018-03-08T06:40:51.098Z,7.78
2018-03-08T06:43:19.559Z,7.50
2018-03-08T06:45:48.000Z,8.10
2018-03-08T06:48:16.410Z,8.30
2018-03-08T06:50:44.909Z,6.70
2018-03-08T06:53:13.450Z,6.53
2018-03-08T06:55:41.846Z,7.20
2018-03-08T06:58:10.242Z,6.13
2018-03-08T07:00:38.656Z,4.60
2018-03-08T07:03:07.144Z,6.13
2018-03-08T07:05:35.727Z,4.57
2018-03-08T07:08:04.114Z,4.20
2018-03-08T07:10:32.504Z,3.87
2018-03-08T07:13:00.903Z,4.27
2018-03-08T07:15:29.389Z,3.27
2018-03-08T07:17:57.787Z,3.17
2018-03-08T07:20:26.184Z,3.57
2018-03-08T07:22:54.637Z,4.00
2018-03-08T07:25:23.104Z,4.57
2018-03-08T07:27:51.483Z,4.30
2018-03-08T07:30:37.924Z,5.50
2018-03-08T07:33:06.305Z,4.40
2018-03-08T07:35:34.695Z,4.60
2018-03-08T07:38:03.084Z,10.77
2018-03-08T07:40:31.547Z,5.28
2018-03-08T07:42:59.917Z,5.77
2018-03-08T07:45:28.304Z,4.80
2018-03-08T07:48:02.381Z,5.30
2018-03-08T07:50:44.317Z,4.90
2018-03-08T07:53:16.909Z,4.80
2018-03-08T07:55:45.331Z,5.63
2018-03-08T07:58:15.230Z,5.80
2018-03-08T08:00:44.167Z,6.10
2018-03-08T08:03:23.438Z,6.80
2018-03-08T08:06:12.349Z,6.40
2018-03-08T08:11:51.078Z,7.10
2018-03-08T08:17:28.278Z,8.20
2018-03-08T09:20:38.800Z,4.63
2018-03-08T09:23:07.183Z,4.47
2018-03-08T09:25:35.664Z,4.57
2018-03-08T09:28:04.155Z,4.10
2018-03-08T09:30:32.611Z,4.43
2018-03-08T09:33:01.011Z,4.47
2018-03-08T09:35:29.432Z,4.53
2018-03-08T09:37:57.901Z,4.40
2018-03-08T09:40:26.297Z,4.00
2018-03-08T09:42:54.672Z,4.93
2018-03-08T09:45:23.088Z,5.83
2018-03-08T09:47:51.553Z,5.77
2018-03-08T09:50:20.055Z,6.23
2018-03-08T09:52:48.460Z,5.20
2018-03-08T09:55:16.860Z,5.20
2018-03-08T09:57:45.328Z,5.10
2018-03-08T10:00:13.730Z,6.70
2018-03-08T10:02:42.189Z,5.73
2018-03-08T10:05:10.678Z,5.63
2018-03-08T10:07:39.144Z,6.23
2018-03-08T10:10:07.552Z,6.13
2018-03-08T10:12:35.953Z,4.80
2018-03-08T10:15:04.531Z,5.33
2018-03-08T10:17:33.059Z,5.40
2018-03-08T10:20:01.505Z,5.50
2018-03-08T10:22:29.904Z,5.13
2018-03-08T10:24:58.286Z,4.73
2018-03-08T10:27:26.692Z,5.00
2018-03-08T10:29:55.077Z,4.63
2018-03-08T10:32:23.525Z,5.30
2018-03-08T10:34:51.911Z,4.87
2018-03-08T10:37:20.364Z,5.13
2018-03-08T10:39:48.772Z,5.40
2018-03-08T10:42:17.212Z,5.50
2018-03-08T10:44:45.670Z,5.27
2018-03-08T10:47:14.568Z,4.83
2018-03-08T10:49:42.957Z,4.90
2018-03-08T10:52:11.345Z,5.43
2018-03-08T10:54:39.749Z,5.97
2018-03-08T10:57:08.593Z,5.93
2018-03-08T10:59:36.984Z,5.40
2018-03-08T11:05:13.620Z,4.90
2018-03-08T11:07:41.971Z,5.00
2018-03-08T11:10:10.334Z,5.60
2018-03-08T11:12:38.730Z,4.60
2018-03-08T11:15:07.191Z,4.80
2018-03-08T11:17:35.539Z,4.30
2018-03-08T11:20:03.904Z,4.70
2018-03-08T11:22:32.318Z,3.70
2018-03-08T11:25:00.938Z,4.33
2018-03-08T11:27:29.292Z,3.93
2018-03-08T11:29:57.708Z,4.10
2018-03-08T11:32:26.135Z,3.70
2018-03-08T11:34:54.516Z,3.40
2018-03-08T11:37:22.961Z,4.37
2018-03-08T11:39:51.302Z,4.60
2018-03-08T11:42:19.738Z,3.90
2018-03-08T11:44:48.123Z,3.70
2018-03-08T11:47:16.490Z,4.17
2018-03-08T11:49:44.948Z,4.30
2018-03-08T11:52:14.383Z,3.80
2018-03-08T11:54:41.752Z,4.90
2018-03-08T11:57:10.115Z,4.03
2018-03-08T11:59:38.538Z,3.80
2018-03-08T12:02:06.911Z,4.30
2018-03-08T12:04:35.423Z,5.20
2018-03-08T12:07:03.787Z,4.50
2018-03-08T12:09:32.262Z,5.03
2018-03-08T12:12:00.630Z,4.60
2018-03-08T12:14:29.065Z,4.57
2018-03-08T12:16:57.596Z,3.73
2018-03-08T12:19:25.867Z,3.80
2018-03-08T12:21:54.236Z,4.17
2018-03-08T12:24:22.589Z,4.27
2018-03-08T12:26:50.952Z,6.30
2018-03-08T12:29:19.342Z,3.97
2018-03-08T12:31:47.742Z,4.90
2018-03-08T12:34:16.242Z,4.53
2018-03-08T12:36:44.649Z,4.53
2018-03-08T12:39:13.146Z,4.90
2018-03-08T12:41:41.652Z,3.97
2018-03-08T12:44:10.054Z,4.73
2018-03-08T12:46:39.800Z,4.40
2018-03-08T12:49:08.614Z,5.33
2018-03-08T12:51:37.065Z,3.93
2018-03-08T12:54:05.544Z,4.80
2018-03-08T12:56:33.951Z,4.93
2018-03-08T12:59:02.416Z,4.60
2018-03-08T13:01:30.798Z,4.40
2018-03-08T13:03:59.536Z,4.57
2018-03-08T13:06:27.932Z,3.80
2018-03-08T13:08:56.402Z,4.20
2018-03-08T13:11:25.002Z,3.93
2018-03-08T13:13:53.404Z,3.50
2018-03-08T13:16:21.884Z,3.90
2018-03-08T13:18:52.964Z,4.30
2018-03-08T13:21:21.398Z,3.90
2018-03-08T13:23:49.771Z,3.90
2018-03-08T13:26:18.229Z,3.67
2018-03-08T13:28:46.692Z,4.17
2018-03-08T13:31:15.153Z,4.07
2018-03-08T13:33:43.654Z,4.17
2018-03-08T13:36:12.042Z,3.87
2018-03-08T13:38:40.590Z,3.60
2018-03-08T13:41:08.973Z,4.00
2018-03-08T13:43:37.410Z,3.90
2018-03-08T13:46:05.746Z,4.17
2018-03-08T13:48:34.144Z,4.63
2018-03-08T13:51:02.668Z,4.50
2018-03-08T13:53:31.063Z,4.70
2018-03-08T13:55:59.524Z,4.47
2018-03-08T13:58:28.290Z,4.60
2018-03-08T14:00:56.838Z,4.00
2018-03-08T14:03:26.000Z,3.93
2018-03-08T14:05:54.355Z,5.00
2018-03-08T14:08:22.740Z,4.40
2018-03-08T14:10:51.081Z,4.03
2018-03-08T14:13:19.537Z,4.43
2018-03-08T14:15:47.924Z,4.60
2018-03-08T14:18:16.330Z,4.67
2018-03-08T14:20:44.786Z,5.40
2018-03-08T14:23:13.247Z,5.30
2018-03-08T14:25:41.658Z,5.00
2018-03-08T14:28:10.121Z,4.50
2018-03-08T14:30:38.555Z,4.90
2018-03-08T14:33:07.015Z,5.20
2018-03-08T14:35:35.766Z,5.13
2018-03-08T14:38:04.155Z,5.90
2018-03-08T14:40:32.527Z,5.50
2018-03-08T14:43:00.945Z,5.40
2018-03-08T14:45:29.431Z,5.87
2018-03-08T14:47:58.032Z,5.50
2018-03-08T14:50:26.452Z,5.17
2018-03-08T14:52:54.998Z,5.37
2018-03-08T14:55:23.416Z,4.93
2018-03-08T14:57:51.773Z,4.43
2018-03-08T15:00:20.203Z,4.73
2018-03-08T15:02:48.591Z,4.60
2018-03-08T15:05:16.969Z,4.60
2018-03-08T15:07:45.467Z,4.60
2018-03-08T15:10:13.876Z,4.80
2018-03-08T15:12:42.415Z,4.63
2018-03-08T15:15:10.794Z,4.20
2018-03-08T15:17:39.232Z,4.23
2018-03-08T15:20:07.629Z,4.50
2018-03-08T15:22:36.012Z,4.40
2018-03-08T15:25:04.420Z,3.70
2018-03-08T15:27:32.958Z,3.77
2018-03-08T15:30:01.399Z,3.50
2018-03-08T15:32:29.877Z,3.40
2018-03-08T15:34:58.292Z,3.50
2018-03-08T15:37:26.772Z,3.00
2018-03-08T15:39:55.151Z,3.67
2018-03-08T15:42:23.535Z,3.53
2018-03-08T15:44:51.886Z,3.17
2018-03-08T15:47:20.330Z,3.40
2018-03-08T15:49:48.731Z,3.20
2018-03-08T15:52:17.150Z,3.10
2018-03-08T15:54:45.553Z,3.23
2018-03-08T15:57:14.110Z,3.20
2018-03-08T15:59:42.639Z,3.03
2018-03-08T16:02:11.083Z,3.87
2018-03-08T16:04:39.475Z,4.37
2018-03-08T16:10:36.583Z,3.60
2018-03-08T16:13:05.030Z,3.27
2018-03-08T16:15:33.879Z,3.70
2018-03-08T16:18:02.546Z,3.93
2018-03-08T16:20:31.720Z,3.83
2018-03-08T16:23:00.151Z,3.90
2018-03-08T16:25:28.550Z,3.67
2018-03-08T16:27:57.097Z,4.33
2018-03-08T16:30:25.576Z,4.10
2018-03-08T16:32:53.990Z,3.07
2018-03-08T16:35:22.424Z,3.53
2018-03-08T16:37:50.800Z,3.20
2018-03-08T16:40:19.567Z,4.47
2018-03-08T16:42:48.006Z,4.10
2018-03-08T16:45:16.483Z,4.20
2018-03-08T16:47:44.991Z,4.47
2018-03-08T16:50:13.473Z,5.00
2018-03-08T16:52:41.864Z,3.70
2018-03-08T16:55:10.231Z,3.50
2018-03-08T16:57:38.675Z,3.60
2018-03-08T17:00:07.132Z,3.80
2018-03-08T17:02:35.523Z,3.80
2018-03-08T17:05:03.963Z,3.93
2018-03-08T17:07:32.421Z,3.62
2018-03-08T17:10:00.814Z,4.00
2018-03-08T17:12:29.256Z,3.60
2018-03-08T17:14:57.657Z,4.00
2018-03-08T17:17:26.034Z,3.73
2018-03-08T17:19:54.507Z,3.63
2018-03-08T17:22:22.882Z,3.50
2018-03-08T17:24:51.636Z,3.53
2018-03-08T17:27:20.002Z,2.80
2018-03-08T17:29:48.391Z,1.92
2018-03-08T17:32:16.811Z,2.20
2018-03-08T17:34:45.285Z,3.58
2018-03-08T17:37:13.921Z,8.55
2018-03-08T17:39:42.316Z,2.60
2018-03-08T17:42:10.690Z,2.20
2018-03-08T17:44:39.104Z,1.60
2018-03-08T17:47:07.482Z,1.02
2018-03-08T17:49:36.069Z,1.20
2018-03-08T17:52:04.547Z,1.05
2018-03-08T17:54:32.954Z,0.50
2018-03-08T17:57:01.367Z,0.60
2018-03-08T17:59:29.743Z,0.40
2018-03-08T18:01:58.186Z,0.40
2018-03-08T18:04:26.573Z,0.40
2018-03-08T18:06:54.975Z,0.50
2018-03-08T18:09:23.358Z,0.80
2018-03-08T18:11:51.803Z,0.47
2018-03-08T18:14:20.237Z,1.12
2018-03-08T18:16:48.647Z,0.45
2018-03-08T18:19:17.102Z,0.50
2018-03-08T18:21:46.738Z,0.50
2018-03-08T18:24:15.227Z,0.70
2018-03-08T18:26:43.989Z,0.65
2018-03-08T18:29:12.498Z,0.60
2018-03-08T18:31:40.890Z,0.98
2018-03-08T18:34:09.284Z,0.50
2018-03-08T18:36:37.666Z,0.70
2018-03-08T18:39:06.148Z,9.73
2018-03-08T18:41:34.558Z,2.45
2018-03-08T18:44:03.025Z,1.55
2018-03-08T18:46:31.437Z,1.50
2018-03-08T18:48:59.826Z,2.10
2018-03-08T18:51:32.347Z,4.25
2018-03-08T18:54:00.730Z,3.92
2018-03-08T18:56:29.171Z,4.35
2018-03-08T18:58:57.576Z,5.60
2018-03-08T19:01:26.410Z,4.72
2018-03-08T19:03:55.385Z,5.82
2018-03-08T19:06:23.865Z,6.00
2018-03-08T19:08:52.304Z,5.37
2018-03-08T19:11:21.842Z,7.05
2018-03-08T19:13:50.443Z,6.40
2018-03-08T19:16:19.094Z,6.50
2018-03-08T19:18:47.488Z,8.02
2018-03-08T19:21:19.915Z,7.62
2018-03-08T19:23:48.290Z,9.30
2018-03-08T19:26:17.022Z,8.40
2018-03-08T19:28:45.745Z,9.30
2018-03-08T19:31:15.011Z,9.55
2018-03-08T19:33:47.093Z,9.63
2018-03-08T19:36:21.778Z,8.88
2018-03-08T19:41:27.298Z,9.90
2018-03-08T19:44:06.605Z,10.20
2018-03-08T19:46:50.679Z,10.05
2018-03-08T19:49:27.032Z,9.18
2018-03-08T19:51:55.438Z,9.65
2018-03-08T19:54:23.808Z,9.20
2018-03-08T19:56:52.262Z,10.82
2018-03-08T19:59:20.786Z,9.95
2018-03-08T20:01:51.539Z,10.88
2018-03-08T20:04:27.309Z,10.00
2018-03-08T20:06:56.099Z,9.98
2018-03-08T20:09:25.050Z,10.40
2018-03-08T20:11:53.727Z,10.95
2018-03-08T20:14:23.258Z,11.73
2018-03-08T20:16:52.031Z,10.32
2018-03-08T20:19:20.461Z,9.27
2018-03-08T20:21:48.961Z,11.38
2018-03-08T20:24:17.416Z,10.02
2018-03-08T20:26:45.831Z,9.93
2018-03-08T20:29:14.248Z,9.75
2018-03-08T20:31:46.699Z,10.00
2018-03-08T20:34:15.144Z,10.02
2018-03-08T20:36:43.599Z,9.07
2018-03-08T20:39:12.008Z,9.75
2018-03-08T20:41:40.428Z,9.55
2018-03-08T20:44:08.907Z,10.68
2018-03-08T20:46:38.793Z,10.50
2018-03-08T20:49:07.290Z,11.02
2018-03-08T20:51:36.279Z,10.00
2018-03-08T20:54:04.680Z,14.32
2018-03-08T20:56:33.084Z,4.75
2018-03-08T20:59:01.551Z,3.40
2018-03-08T21:01:30.011Z,4.03
2018-03-08T21:03:58.411Z,4.35
2018-03-08T21:06:26.798Z,2.95
2018-03-08T21:08:55.199Z,2.75
2018-03-08T21:11:23.581Z,4.12
2018-03-08T21:13:51.991Z,6.53
2018-03-08T21:16:20.371Z,6.70
2018-03-08T21:18:48.743Z,7.60
2018-03-08T21:21:17.236Z,12.23
2018-03-08T21:23:45.606Z,14.57
2018-03-08T21:26:14.078Z,14.57
2018-03-08T21:28:42.587Z,14.35
2018-03-08T21:31:10.985Z,13.70
2018-03-08T21:33:39.392Z,14.15
2018-03-08T21:36:07.771Z,16.87
2018-03-08T21:38:36.191Z,14.18
2018-03-08T21:41:04.560Z,13.77
2018-03-08T21:43:32.987Z,14.68
2018-03-08T21:46:01.631Z,15.05
2018-03-08T21:48:30.352Z,14.60
2018-03-08T21:50:58.789Z,15.27
2018-03-08T21:53:27.174Z,15.25
2018-03-08T21:55:55.612Z,15.93
2018-03-08T21:58:23.985Z,14.75
2018-03-08T22:00:52.470Z,15.98
2018-03-08T22:03:20.858Z,15.50
2018-03-08T22:05:49.435Z,16.00
2018-03-08T22:08:17.813Z,16.15
2018-03-08T22:10:46.277Z,16.23
2018-03-08T22:13:14.714Z,16.50
2018-03-08T22:15:43.105Z,16.30
2018-03-08T22:18:11.511Z,17.00
2018-03-08T22:20:39.866Z,17.12
2018-03-08T22:23:08.250Z,16.10
2018-03-08T22:25:36.695Z,16.35
2018-03-08T22:28:05.085Z,16.90
2018-03-08T22:30:33.525Z,16.37
2018-03-08T22:33:01.962Z,20.25
2018-03-08T22:35:30.402Z,17.60
2018-03-08T22:37:58.911Z,17.73
2018-03-08T22:43:01.014Z,18.25
2018-03-08T22:45:29.361Z,19.50
2018-03-08T22:47:57.764Z,17.60
2018-03-08T22:50:26.248Z,17.87
2018-03-08T22:52:54.665Z,18.08
2018-03-08T22:55:23.143Z,17.17
2018-03-08T22:57:51.687Z,17.95
2018-03-08T23:00:20.112Z,18.23
2018-03-08T23:02:48.484Z,18.95
2018-03-08T23:05:16.888Z,17.20
2018-03-08T23:07:45.413Z,18.73
2018-03-08T23:10:13.808Z,18.42
2018-03-08T23:12:42.215Z,17.58
2018-03-08T23:15:10.616Z,19.02
2018-03-08T23:17:39.025Z,16.52
2018-03-08T23:20:07.515Z,18.48
2018-03-08T23:22:35.895Z,16.85
2018-03-08T23:25:04.308Z,17.40
2018-03-08T23:27:32.719Z,16.62
2018-03-08T23:30:01.130Z,17.35
2018-03-08T23:32:29.586Z,16.80
2018-03-08T23:34:57.983Z,17.27
2018-03-08T23:37:26.379Z,16.17
2018-03-08T23:39:54.751Z,16.55
2018-03-08T23:42:23.125Z,18.27
2018-03-08T23:44:51.570Z,18.00
2018-03-08T23:47:19.944Z,16.55
2018-03-08T23:49:48.318Z,17.52
2018-03-08T23:52:16.713Z,16.75
2018-03-08T23:54:45.084Z,17.42
2018-03-08T23:57:13.518Z,16.50
2018-03-08T23:59:41.888Z,17.25
